Accueil
METAR-TAF:

METAR-TAF

Aéroports :

Aéroport de Strasbourg-Entzheim

Strasbourg, France

latitude: 48-33N, longitude: 007-38E, altitude: 153 m

Observation

Le bulletin a été fait il y a 35 minutes, à 15:00 UTC
Vent 12 kt de nord/nord-est
Température 6°C
Humidité 65%
Pression 1025 hPa
Visibilité 10 km ou plus
Nuages épars à une hauteur de 2600 ft
Nuages fragmentés à une hauteur de 3200 ft
Ciel couvert à une hauteur de 5600 ft

METAR: LFST 051500Z AUTO 03012KT 9999 SCT026 BKN032 OVC056 06/00 Q1025 NOSIG

Heure: 16:35 (15:35 UTC)

Prévision

Le bulletin a été fait il y a 4 heures et 35 minutes, à 11:00 UTC
Prévision valable du 05 à 12 UTC au 06 à 12 UTC
Vent 10 kt de nord/nord-est
Visibilité 10 km ou plus
Nuages fragmentés à une hauteur de 3000 ft

TAF: LFST 051100Z 0512/0612 03010KT 9999 BKN030

Observations et prévisions météorologiques de plus de 4000 aéroports (messages METAR et TAF).

Les stations disponibles sont représentées par des disques jaunes et rouges sur la carte.

Passer la souris dessus pour voir le nom de la station.

Cliquer dessus pour voir les observations et prévisions météorologiques.

Pour changer de carte: cliquez sur les boutons verts avec une croix noire pour zoomer, sur le bouton vert avec un tiret pour effectuer un zoom arrière, ou sur les flèches vertes pour les cartes adjacentes.


METAR-TAF: